createdAt,value
2023-01-25T00:01:05.068Z,8.63
2023-01-25T00:03:32.616Z,8.58
2023-01-25T00:06:04.451Z,8.65
2023-01-25T00:08:33.747Z,8.61
2023-01-25T00:11:01.403Z,8.58
2023-01-25T00:13:29.013Z,8.65
2023-01-25T00:16:04.687Z,8.61
2023-01-25T00:18:33.188Z,8.55
2023-01-25T00:21:00.797Z,8.47
2023-01-25T00:23:28.906Z,8.51
2023-01-25T00:25:59.838Z,8.49
2023-01-25T00:28:27.378Z,8.45
2023-01-25T00:31:00.131Z,8.43
2023-01-25T00:34:06.117Z,8.57
2023-01-25T00:36:40.010Z,8.57
2023-01-25T00:39:12.213Z,8.46
2023-01-25T00:41:40.508Z,8.43
2023-01-25T00:44:08.413Z,8.26
2023-01-25T00:46:36.365Z,8.37
2023-01-25T00:49:07.581Z,8.21
2023-01-25T00:51:35.141Z,8.29
2023-01-25T00:54:03.119Z,8.25
2023-01-25T00:56:31.128Z,8.32
2023-01-25T00:58:58.665Z,8.34
2023-01-25T01:01:26.446Z,8.35
2023-01-25T01:03:53.951Z,8.40
2023-01-25T01:06:23.115Z,8.31
2023-01-25T01:08:53.948Z,8.26
2023-01-25T01:11:23.111Z,8.30
2023-01-25T01:13:51.554Z,8.37
2023-01-25T01:16:19.166Z,8.32
2023-01-25T01:18:47.425Z,8.18
2023-01-25T01:21:15.137Z,8.37
2023-01-25T01:23:43.304Z,8.42
2023-01-25T01:26:19.526Z,8.37
2023-01-25T01:28:47.773Z,8.34
2023-01-25T01:31:22.264Z,8.30
2023-01-25T01:34:01.226Z,8.39
2023-01-25T01:36:30.555Z,8.33
2023-01-25T01:39:00.047Z,8.35
2023-01-25T01:41:28.765Z,8.41
2023-01-25T01:43:56.489Z,8.43
2023-01-25T01:46:26.906Z,8.51
2023-01-25T01:49:03.397Z,8.41
2023-01-25T01:52:02.109Z,8.49
2023-01-25T01:54:37.603Z,8.36
2023-01-25T01:57:14.530Z,8.51
2023-01-25T01:59:53.357Z,8.55
2023-01-25T02:02:24.969Z,8.53
2023-01-25T02:04:56.094Z,8.38
2023-01-25T02:07:34.685Z,8.49
2023-01-25T02:10:06.718Z,8.38
2023-01-25T02:12:35.787Z,8.58
2023-01-25T02:15:04.492Z,8.58
2023-01-25T02:17:35.148Z,8.62
2023-01-25T02:20:37.431Z,8.76
2023-01-25T02:23:33.614Z,8.70
2023-01-25T02:26:06.910Z,8.74
2023-01-25T02:28:41.635Z,8.72
2023-01-25T02:31:09.586Z,8.83
2023-01-25T02:33:37.427Z,8.79
2023-01-25T02:36:08.797Z,8.71
2023-01-25T02:38:40.126Z,8.70
2023-01-25T02:41:13.813Z,8.72
2023-01-25T02:43:42.368Z,8.66
2023-01-25T02:46:15.813Z,8.57
2023-01-25T02:48:45.812Z,8.72
2023-01-25T02:51:13.402Z,8.64
2023-01-25T02:53:41.825Z,8.66
2023-01-25T02:56:09.416Z,8.40
2023-01-25T02:58:37.064Z,8.27
2023-01-25T03:01:05.143Z,8.36
2023-01-25T03:03:33.262Z,8.34
2023-01-25T03:06:00.939Z,8.38
2023-01-25T03:08:28.489Z,8.15
2023-01-25T03:10:59.298Z,7.83
2023-01-25T03:13:29.485Z,7.62
2023-01-25T03:16:03.213Z,7.51
2023-01-25T03:18:31.344Z,7.71
2023-01-25T03:21:08.516Z,7.79
2023-01-25T03:23:36.231Z,7.79
2023-01-25T03:26:13.286Z,7.86
2023-01-25T03:28:55.925Z,7.78
2023-01-25T03:31:24.854Z,7.80
2023-01-25T03:33:53.043Z,7.71
2023-01-25T03:36:24.992Z,7.68
2023-01-25T03:38:52.764Z,7.69
2023-01-25T03:41:21.326Z,7.70
2023-01-25T03:43:48.799Z,7.63
2023-01-25T03:46:18.315Z,7.64
2023-01-25T03:48:47.037Z,7.56
2023-01-25T03:51:14.627Z,7.60
2023-01-25T03:53:42.380Z,7.56
2023-01-25T03:56:20.001Z,7.43
2023-01-25T03:59:07.379Z,7.35
2023-01-25T04:01:37.031Z,7.28
2023-01-25T04:04:04.764Z,7.24
2023-01-25T04:06:33.473Z,7.16
2023-01-25T04:09:01.833Z,7.15
2023-01-25T04:11:36.113Z,7.16
2023-01-25T04:14:04.326Z,7.15
2023-01-25T04:16:40.035Z,7.14
2023-01-25T04:19:19.936Z,7.06
2023-01-25T04:21:47.877Z,7.14
2023-01-25T04:24:16.151Z,7.23
2023-01-25T04:26:45.073Z,7.23
2023-01-25T04:29:13.138Z,7.33
2023-01-25T04:31:41.009Z,7.25
2023-01-25T04:34:08.719Z,7.28
2023-01-25T04:36:36.729Z,7.41
2023-01-25T04:39:04.348Z,7.57
2023-01-25T04:41:31.991Z,7.60
2023-01-25T04:44:00.204Z,7.74
2023-01-25T04:46:28.031Z,7.71
2023-01-25T04:48:55.985Z,7.74
2023-01-25T04:51:24.135Z,7.78
2023-01-25T04:53:51.911Z,7.74
2023-01-25T04:56:19.741Z,7.57
2023-01-25T04:58:53.360Z,7.68
2023-01-25T05:01:20.963Z,7.44
2023-01-25T05:03:50.161Z,7.41
2023-01-25T05:06:40.956Z,7.41
2023-01-25T05:09:10.285Z,7.55
2023-01-25T05:11:38.124Z,7.47
2023-01-25T05:14:12.449Z,7.63
2023-01-25T05:16:39.954Z,7.70
2023-01-25T05:19:10.147Z,7.59
2023-01-25T05:21:59.377Z,7.61
2023-01-25T05:24:35.499Z,7.52
2023-01-25T05:27:07.961Z,7.66
2023-01-25T05:30:08.736Z,7.56
2023-01-25T05:32:41.606Z,7.46
2023-01-25T05:35:09.956Z,7.59
2023-01-25T05:37:39.468Z,7.62
2023-01-25T05:40:11.644Z,7.65
2023-01-25T05:42:40.633Z,7.70
2023-01-25T05:45:15.751Z,7.76
2023-01-25T05:47:46.308Z,7.67
2023-01-25T05:50:14.683Z,7.67
2023-01-25T05:52:51.907Z,7.66
2023-01-25T05:55:19.491Z,7.70
2023-01-25T05:57:47.860Z,7.74
2023-01-25T06:00:16.415Z,7.69
2023-01-25T06:02:44.494Z,7.63
2023-01-25T06:05:17.201Z,7.67
2023-01-25T06:07:44.796Z,7.59
2023-01-25T06:10:13.047Z,7.59
2023-01-25T06:12:40.794Z,7.69
2023-01-25T06:15:09.755Z,7.75
2023-01-25T06:17:38.019Z,7.81
2023-01-25T06:20:38.226Z,7.77
2023-01-25T06:23:06.233Z,7.73
2023-01-25T06:25:34.225Z,7.68
2023-01-25T06:28:01.828Z,7.64
2023-01-25T06:30:29.300Z,7.33
2023-01-25T06:32:59.821Z,7.34
2023-01-25T06:35:27.763Z,7.32
2023-01-25T06:37:56.664Z,7.20
2023-01-25T06:40:24.622Z,7.36
2023-01-25T06:42:52.298Z,7.37
2023-01-25T06:45:20.237Z,7.16
2023-01-25T06:47:49.969Z,7.28
2023-01-25T06:50:17.714Z,7.18
2023-01-25T06:52:52.316Z,7.10
2023-01-25T06:55:21.126Z,7.27
2023-01-25T06:57:49.329Z,7.25
2023-01-25T07:00:17.609Z,7.24
2023-01-25T07:02:45.813Z,7.34
2023-01-25T07:05:13.893Z,7.38
2023-01-25T07:07:45.510Z,7.37
2023-01-25T07:10:13.442Z,7.40
2023-01-25T07:12:41.437Z,7.35
2023-01-25T07:15:10.467Z,7.41
2023-01-25T07:17:38.209Z,7.49
2023-01-25T07:20:06.386Z,7.59
2023-01-25T07:22:34.809Z,7.60
2023-01-25T07:25:02.787Z,7.66
2023-01-25T07:27:33.838Z,7.83
2023-01-25T07:30:01.596Z,8.01
2023-01-25T07:32:29.184Z,8.33
2023-01-25T07:34:56.735Z,8.50
2023-01-25T07:37:25.306Z,8.70
2023-01-25T07:39:52.912Z,8.68
2023-01-25T07:42:20.504Z,8.95
2023-01-25T07:44:53.912Z,9.10
2023-01-25T07:47:21.635Z,9.04
2023-01-25T07:49:49.232Z,9.19
2023-01-25T07:52:17.077Z,9.19
2023-01-25T07:54:48.343Z,9.18
2023-01-25T07:57:17.279Z,9.09
2023-01-25T07:59:44.903Z,9.09
2023-01-25T08:02:12.641Z,9.22
2023-01-25T08:04:42.581Z,9.22
2023-01-25T08:07:10.539Z,9.27
2023-01-25T08:09:38.289Z,9.49
2023-01-25T08:12:08.659Z,9.39
2023-01-25T08:14:38.475Z,9.41
2023-01-25T08:17:06.024Z,9.43
2023-01-25T08:19:33.521Z,9.39
2023-01-25T08:22:01.090Z,9.50
2023-01-25T08:24:29.249Z,9.68
2023-01-25T08:26:57.257Z,9.94
2023-01-25T08:29:24.897Z,9.91
2023-01-25T08:31:52.611Z,10.29
2023-01-25T08:34:20.667Z,10.59
2023-01-25T08:36:48.291Z,10.45
2023-01-25T08:39:18.257Z,10.47
2023-01-25T08:41:45.912Z,10.57
2023-01-25T08:44:13.928Z,10.74
2023-01-25T08:46:41.943Z,10.89
2023-01-25T08:49:10.828Z,10.75
2023-01-25T08:51:38.722Z,10.92
2023-01-25T08:54:07.899Z,11.13
2023-01-25T08:56:38.367Z,10.96
2023-01-25T08:59:06.285Z,10.71
2023-01-25T09:01:34.897Z,10.83
2023-01-25T09:04:03.485Z,10.67
2023-01-25T09:06:32.636Z,10.41
2023-01-25T09:09:00.550Z,10.27
2023-01-25T09:11:28.459Z,10.05
2023-01-25T09:13:56.442Z,10.10
2023-01-25T09:16:29.513Z,9.96
2023-01-25T09:19:00.009Z,9.79
2023-01-25T09:21:28.668Z,10.00
2023-01-25T09:24:05.952Z,9.91
2023-01-25T09:26:37.615Z,10.03
2023-01-25T09:29:07.927Z,10.21
2023-01-25T09:31:40.690Z,10.00
2023-01-25T09:34:30.393Z,10.03
2023-01-25T09:36:57.997Z,9.88
2023-01-25T09:39:25.723Z,9.98
2023-01-25T09:42:15.105Z,9.89
2023-01-25T09:45:06.603Z,10.00
2023-01-25T09:47:34.111Z,10.03
2023-01-25T09:50:04.486Z,10.39
2023-01-25T09:52:41.350Z,10.91
2023-01-25T09:55:14.685Z,11.17
2023-01-25T09:57:45.473Z,11.40
2023-01-25T10:00:19.355Z,11.51
2023-01-25T10:03:11.478Z,11.64
2023-01-25T10:05:49.171Z,12.14
2023-01-25T10:08:43.475Z,12.97
2023-01-25T10:11:17.040Z,14.11
2023-01-25T10:13:44.556Z,13.73
2023-01-25T10:16:36.085Z,13.32
2023-01-25T10:19:38.829Z,13.28
2023-01-25T10:22:24.219Z,13.20
2023-01-25T10:25:01.642Z,13.15
2023-01-25T10:27:44.128Z,13.20
2023-01-25T10:30:49.586Z,13.15
2023-01-25T10:33:19.999Z,12.73
2023-01-25T10:35:50.323Z,12.66
2023-01-25T10:39:01.151Z,13.93
2023-01-25T10:41:40.919Z,14.70
2023-01-25T10:44:21.843Z,14.92
2023-01-25T10:46:56.099Z,14.32
2023-01-25T10:49:32.356Z,13.90
2023-01-25T10:52:17.944Z,13.95
2023-01-25T10:54:51.642Z,13.53
2023-01-25T10:57:20.348Z,13.08
2023-01-25T10:59:51.625Z,13.06
2023-01-25T11:02:47.926Z,12.68
2023-01-25T11:05:18.781Z,12.79
2023-01-25T11:07:47.353Z,12.74
2023-01-25T11:10:38.178Z,12.49
2023-01-25T11:13:29.686Z,12.49
2023-01-25T11:16:01.726Z,12.39
2023-01-25T11:18:34.932Z,12.46
2023-01-25T11:21:18.787Z,12.29
2023-01-25T11:24:04.868Z,12.02
2023-01-25T11:26:36.772Z,12.37
2023-01-25T11:29:16.307Z,12.45
2023-01-25T11:31:47.975Z,12.34
2023-01-25T11:34:18.301Z,12.43
2023-01-25T11:37:29.051Z,12.62
2023-01-25T11:40:02.484Z,12.92
2023-01-25T11:43:13.151Z,12.89
2023-01-25T11:46:02.845Z,14.28
2023-01-25T11:48:46.349Z,15.46
2023-01-25T11:51:29.269Z,15.74
2023-01-25T11:54:13.016Z,15.59
2023-01-25T11:57:25.558Z,16.00
2023-01-25T12:00:30.635Z,14.48
2023-01-25T12:03:34.540Z,14.88
2023-01-25T12:06:30.721Z,15.56
2023-01-25T12:09:46.329Z,16.31
2023-01-25T12:12:44.818Z,16.52
2023-01-25T12:15:24.537Z,16.67
2023-01-25T12:18:22.781Z,17.30
2023-01-25T12:21:34.558Z,16.58
2023-01-25T12:24:33.423Z,17.10
2023-01-25T12:27:07.935Z,16.81
2023-01-25T12:29:43.944Z,16.84
2023-01-25T12:32:19.812Z,17.22
2023-01-25T12:34:53.061Z,16.10
2023-01-25T12:37:28.215Z,16.10
2023-01-25T12:40:09.973Z,17.18
2023-01-25T12:42:47.703Z,16.66
2023-01-25T12:45:25.244Z,16.15
2023-01-25T12:48:05.883Z,17.27
2023-01-25T12:50:40.495Z,17.63
2023-01-25T12:53:42.365Z,18.17
2023-01-25T12:56:27.181Z,18.58
2023-01-25T12:59:09.324Z,18.04
2023-01-25T13:01:49.351Z,18.36
2023-01-25T13:04:26.300Z,19.14
2023-01-25T13:07:00.565Z,18.49
2023-01-25T13:09:52.052Z,19.04
2023-01-25T13:12:19.739Z,19.39
2023-01-25T13:14:47.727Z,18.84
2023-01-25T13:17:27.268Z,19.79
2023-01-25T13:19:55.298Z,20.29
2023-01-25T13:22:44.311Z,19.26
2023-01-25T13:25:18.355Z,19.03
2023-01-25T13:27:47.399Z,18.73
2023-01-25T13:30:34.270Z,18.25
2023-01-25T13:33:06.443Z,17.69
2023-01-25T13:35:36.641Z,18.55
2023-01-25T13:38:35.668Z,18.12
2023-01-25T13:41:17.198Z,17.98
2023-01-25T13:43:48.085Z,17.83
2023-01-25T13:46:19.037Z,18.57
2023-01-25T13:48:54.077Z,19.37
2023-01-25T13:51:23.447Z,20.01
2023-01-25T13:54:00.033Z,20.10
2023-01-25T13:56:35.278Z,19.54
2023-01-25T13:59:04.165Z,18.73
2023-01-25T14:01:36.148Z,18.91
2023-01-25T14:04:05.875Z,20.06
2023-01-25T14:06:38.899Z,18.86
2023-01-25T14:09:16.690Z,19.82
2023-01-25T14:11:56.619Z,20.24
2023-01-25T14:14:27.017Z,20.82
2023-01-25T14:17:16.710Z,21.73
2023-01-25T14:19:49.742Z,19.60
2023-01-25T14:22:28.779Z,20.84
2023-01-25T14:25:19.320Z,20.61
2023-01-25T14:27:51.312Z,20.74
2023-01-25T14:30:30.857Z,22.18
2023-01-25T14:33:01.466Z,23.14
2023-01-25T14:35:43.003Z,21.26
2023-01-25T14:38:24.827Z,22.70
2023-01-25T14:40:57.389Z,23.60
2023-01-25T14:43:26.285Z,20.96
2023-01-25T14:45:53.940Z,17.72
2023-01-25T14:48:45.167Z,18.09
2023-01-25T14:51:12.627Z,19.07
2023-01-25T14:53:43.477Z,17.59
2023-01-25T14:56:36.918Z,16.25
2023-01-25T14:59:06.405Z,17.47
2023-01-25T15:01:40.310Z,18.15
2023-01-25T15:04:13.110Z,18.64
2023-01-25T15:06:50.871Z,18.27
2023-01-25T15:09:38.748Z,16.68
2023-01-25T15:12:23.099Z,15.13
2023-01-25T15:14:53.520Z,13.32
2023-01-25T15:17:44.079Z,13.09
2023-01-25T15:20:34.834Z,13.01
2023-01-25T15:23:21.279Z,12.66
2023-01-25T15:25:54.411Z,12.73
2023-01-25T15:28:24.166Z,12.58
2023-01-25T15:30:52.685Z,12.43
2023-01-25T15:33:25.915Z,12.32
2023-01-25T15:35:55.298Z,12.06
2023-01-25T15:38:23.036Z,12.02
2023-01-25T15:40:51.622Z,11.89
2023-01-25T15:43:20.298Z,11.77
2023-01-25T15:45:50.672Z,11.57
2023-01-25T15:48:23.534Z,11.40
2023-01-25T15:50:54.290Z,11.36
2023-01-25T15:53:22.225Z,11.47
2023-01-25T15:55:57.612Z,11.36
2023-01-25T15:58:34.611Z,11.24
2023-01-25T16:01:02.734Z,11.36
2023-01-25T16:03:32.543Z,11.28
2023-01-25T16:06:04.271Z,11.22
2023-01-25T16:08:32.306Z,11.15
2023-01-25T16:10:59.873Z,11.03
2023-01-25T16:13:27.872Z,10.99
2023-01-25T16:15:57.356Z,10.85
2023-01-25T16:18:24.995Z,11.02
2023-01-25T16:20:52.538Z,10.94
2023-01-25T16:23:20.071Z,10.89
2023-01-25T16:25:48.867Z,11.06
2023-01-25T16:28:17.852Z,10.96
2023-01-25T16:30:45.978Z,11.07
2023-01-25T16:33:13.568Z,11.02
2023-01-25T16:35:41.571Z,11.03
2023-01-25T16:38:11.468Z,10.77
2023-01-25T16:40:39.888Z,10.90
2023-01-25T16:43:07.535Z,10.57
2023-01-25T16:45:35.112Z,10.37
2023-01-25T16:48:03.100Z,10.38
2023-01-25T16:50:31.411Z,10.37
2023-01-25T16:53:00.102Z,10.29
2023-01-25T16:55:27.645Z,10.29
2023-01-25T16:57:55.264Z,10.19
2023-01-25T17:00:22.915Z,10.37
2023-01-25T17:02:59.246Z,10.36
2023-01-25T17:05:34.017Z,10.19
2023-01-25T17:08:01.673Z,10.02
2023-01-25T17:10:29.866Z,10.20
2023-01-25T17:12:57.545Z,10.24
2023-01-25T17:15:25.054Z,10.12
2023-01-25T17:17:52.700Z,10.08
2023-01-25T17:20:20.761Z,10.01
2023-01-25T17:22:51.275Z,10.17
2023-01-25T17:25:19.024Z,10.31
2023-01-25T17:27:47.214Z,10.26
2023-01-25T17:30:14.859Z,10.41
2023-01-25T17:32:42.463Z,10.19
2023-01-25T17:35:10.400Z,10.17
2023-01-25T17:37:41.121Z,10.16
2023-01-25T17:40:10.610Z,10.37
2023-01-25T17:42:38.651Z,10.15
2023-01-25T17:45:06.935Z,10.05
2023-01-25T17:47:35.626Z,9.91
2023-01-25T17:50:04.061Z,9.93
2023-01-25T17:52:32.092Z,9.94
2023-01-25T17:55:00.508Z,9.94
2023-01-25T17:57:31.609Z,9.74
2023-01-25T17:59:59.176Z,9.81
2023-01-25T18:02:27.202Z,9.76
2023-01-25T18:04:57.850Z,9.71
2023-01-25T18:07:25.687Z,9.64
2023-01-25T18:09:53.307Z,9.61
2023-01-25T18:12:21.372Z,9.62
2023-01-25T18:14:49.461Z,9.69
2023-01-25T18:17:17.278Z,9.52
2023-01-25T18:19:45.984Z,9.39
2023-01-25T18:22:14.017Z,9.29
2023-01-25T18:24:43.998Z,9.19
2023-01-25T18:27:21.785Z,9.14
2023-01-25T18:29:55.469Z,9.06
2023-01-25T18:32:23.073Z,9.06
2023-01-25T18:34:50.759Z,9.09
2023-01-25T18:37:18.693Z,9.09
2023-01-25T18:39:48.899Z,9.22
2023-01-25T18:42:16.531Z,9.22
2023-01-25T18:44:48.245Z,9.24
2023-01-25T18:47:20.676Z,9.24
2023-01-25T18:49:49.731Z,9.26
2023-01-25T18:52:19.521Z,9.13
2023-01-25T18:54:47.201Z,9.14
2023-01-25T18:57:15.760Z,9.23
2023-01-25T18:59:44.307Z,9.29
2023-01-25T19:02:13.587Z,9.26
2023-01-25T19:04:41.987Z,9.39
2023-01-25T19:07:10.497Z,9.39
2023-01-25T19:09:38.601Z,9.35
2023-01-25T19:12:06.372Z,9.40
2023-01-25T19:14:33.973Z,9.49
2023-01-25T19:17:01.420Z,9.61
2023-01-25T19:19:32.232Z,9.29
2023-01-25T19:22:01.014Z,9.32
2023-01-25T19:24:28.614Z,9.34
2023-01-25T19:26:56.310Z,9.39
2023-01-25T19:29:24.361Z,9.48
2023-01-25T19:31:52.826Z,9.45
2023-01-25T19:34:21.082Z,9.60
2023-01-25T19:36:53.721Z,9.65
2023-01-25T19:39:21.449Z,9.72
2023-01-25T19:41:53.209Z,9.64
2023-01-25T19:44:21.276Z,9.52
2023-01-25T19:46:49.360Z,9.40
2023-01-25T19:49:17.192Z,9.49
2023-01-25T19:51:46.331Z,9.41
2023-01-25T19:54:17.137Z,9.30
2023-01-25T19:56:48.124Z,9.25
2023-01-25T19:59:18.815Z,9.33
2023-01-25T20:01:47.148Z,9.31
2023-01-25T20:04:19.588Z,9.39
2023-01-25T20:06:47.989Z,9.38
2023-01-25T20:09:17.479Z,9.24
2023-01-25T20:11:47.239Z,9.18
2023-01-25T20:14:16.015Z,9.06
2023-01-25T20:16:43.720Z,8.89
2023-01-25T20:19:12.863Z,8.88
2023-01-25T20:21:40.805Z,8.83
2023-01-25T20:24:10.446Z,8.76
2023-01-25T20:26:42.894Z,8.57
2023-01-25T20:29:12.140Z,8.42
2023-01-25T20:31:43.733Z,8.46
2023-01-25T20:34:17.332Z,8.31
2023-01-25T20:36:45.566Z,8.36
2023-01-25T20:39:15.145Z,8.23
2023-01-25T20:41:42.953Z,8.23
2023-01-25T20:44:13.229Z,8.16
2023-01-25T20:46:42.605Z,8.07
2023-01-25T20:49:15.778Z,8.06
2023-01-25T20:51:44.221Z,8.04
2023-01-25T20:54:12.206Z,8.08
2023-01-25T20:56:40.299Z,8.05
2023-01-25T20:59:08.044Z,8.04
2023-01-25T21:01:39.029Z,8.04
2023-01-25T21:04:09.701Z,7.93
2023-01-25T21:06:38.747Z,7.87
2023-01-25T21:09:06.932Z,7.83
2023-01-25T21:11:34.853Z,7.84
2023-01-25T21:14:02.929Z,7.80
2023-01-25T21:16:30.658Z,7.75
2023-01-25T21:19:04.612Z,7.88
2023-01-25T21:21:34.637Z,7.70
2023-01-25T21:24:05.476Z,7.66
2023-01-25T21:26:35.787Z,7.55
2023-01-25T21:29:05.815Z,7.53
2023-01-25T21:31:36.541Z,7.44
2023-01-25T21:34:06.622Z,7.25
2023-01-25T21:36:34.648Z,7.27
2023-01-25T21:39:02.890Z,7.28
2023-01-25T21:41:33.800Z,7.22
2023-01-25T21:44:21.060Z,7.18
2023-01-25T21:47:16.474Z,7.26
2023-01-25T21:49:55.763Z,7.34
2023-01-25T21:52:23.333Z,7.38
2023-01-25T21:54:51.254Z,7.41
2023-01-25T21:57:19.215Z,7.36
2023-01-25T21:59:48.072Z,7.34
2023-01-25T22:02:15.842Z,7.45
2023-01-25T22:04:43.556Z,7.52
2023-01-25T22:07:12.224Z,7.53
2023-01-25T22:09:39.822Z,7.62
2023-01-25T22:12:07.679Z,7.67
2023-01-25T22:14:35.332Z,7.68
2023-01-25T22:17:03.284Z,7.48
2023-01-25T22:19:31.365Z,7.49
2023-01-25T22:21:59.229Z,7.14
2023-01-25T22:24:26.912Z,7.08
2023-01-25T22:27:10.099Z,7.07
2023-01-25T22:29:38.235Z,7.03
2023-01-25T22:32:06.039Z,6.94
2023-01-25T22:34:33.913Z,7.01
2023-01-25T22:37:02.033Z,7.11
2023-01-25T22:39:29.685Z,7.22
2023-01-25T22:41:57.468Z,7.32
2023-01-25T22:44:25.078Z,7.03
2023-01-25T22:46:53.870Z,7.10
2023-01-25T22:49:21.442Z,7.13
2023-01-25T22:51:48.957Z,6.95
2023-01-25T22:54:17.095Z,7.15
2023-01-25T22:56:45.063Z,7.17
2023-01-25T22:59:18.653Z,7.02
2023-01-25T23:01:46.780Z,6.87
2023-01-25T23:04:14.236Z,6.89
2023-01-25T23:06:42.769Z,6.89
2023-01-25T23:09:10.393Z,6.81
2023-01-25T23:11:39.300Z,6.99
2023-01-25T23:14:38.336Z,6.84
2023-01-25T23:17:24.512Z,6.86
2023-01-25T23:19:52.236Z,6.88
2023-01-25T23:22:20.267Z,6.81
2023-01-25T23:24:47.713Z,6.91
2023-01-25T23:27:15.345Z,6.94
2023-01-25T23:29:46.109Z,7.03
2023-01-25T23:32:13.745Z,6.97
2023-01-25T23:34:42.041Z,7.09
2023-01-25T23:37:10.112Z,7.00
2023-01-25T23:39:38.088Z,6.77
2023-01-25T23:42:06.190Z,6.79
2023-01-25T23:44:33.892Z,6.75
2023-01-25T23:47:01.743Z,6.85
2023-01-25T23:49:29.324Z,6.85
2023-01-25T23:51:56.973Z,7.00
2023-01-25T23:54:27.146Z,6.85
2023-01-25T23:56:54.733Z,6.68
2023-01-25T23:59:22.720Z,6.83
